sensor_id;sensor_type;location;lat;lon;timestamp;temperature;humidity
13976;DHT22;7062;49.792;9.946;2023-02-28T00:01:11;1.60;99.90
13976;DHT22;7062;49.792;9.946;2023-02-28T00:03:37;1.70;99.90
13976;DHT22;7062;49.792;9.946;2023-02-28T00:06:04;1.60;99.90
13976;DHT22;7062;49.792;9.946;2023-02-28T00:08:31;1.50;99.90
13976;DHT22;7062;49.792;9.946;2023-02-28T00:11:04;1.50;99.90
13976;DHT22;7062;49.792;9.946;2023-02-28T00:13:31;1.60;99.90
13976;DHT22;7062;49.792;9.946;2023-02-28T00:16:04;1.60;99.90
13976;DHT22;7062;49.792;9.946;2023-02-28T00:18:31;1.60;99.90
13976;DHT22;7062;49.792;9.946;2023-02-28T00:20:57;1.60;99.90
13976;DHT22;7062;49.792;9.946;2023-02-28T00:23:23;1.50;99.90
13976;DHT22;7062;49.792;9.946;2023-02-28T00:25:50;1.50;99.90
13976;DHT22;7062;49.792;9.946;2023-02-28T00:28:15;1.50;99.90
13976;DHT22;7062;49.792;9.946;2023-02-28T00:30:41;1.40;99.90
13976;DHT22;7062;49.792;9.946;2023-02-28T00:33:07;1.40;99.90
13976;DHT22;7062;49.792;9.946;2023-02-28T00:35:32;1.50;99.90
13976;DHT22;7062;49.792;9.946;2023-02-28T00:37:58;1.60;99.90
13976;DHT22;7062;49.792;9.946;2023-02-28T00:40:24;1.60;99.90
13976;DHT22;7062;49.792;9.946;2023-02-28T00:42:49;1.60;99.90
13976;DHT22;7062;49.792;9.946;2023-02-28T00:45:15;1.40;99.90
13976;DHT22;7062;49.792;9.946;2023-02-28T00:47:40;1.50;99.90
13976;DHT22;7062;49.792;9.946;2023-02-28T00:50:07;1.60;99.90
13976;DHT22;7062;49.792;9.946;2023-02-28T00:52:33;1.40;99.90
13976;DHT22;7062;49.792;9.946;2023-02-28T00:54:58;1.50;99.90
13976;DHT22;7062;49.792;9.946;2023-02-28T00:57:24;1.50;99.90
13976;DHT22;7062;49.792;9.946;2023-02-28T00:59:49;1.50;99.90
13976;DHT22;7062;49.792;9.946;2023-02-28T01:02:15;1.60;99.90
13976;DHT22;7062;49.792;9.946;2023-02-28T01:04:41;1.40;99.90
13976;DHT22;7062;49.792;9.946;2023-02-28T01:07:07;1.40;99.90
13976;DHT22;7062;49.792;9.946;2023-02-28T01:09:32;1.30;99.90
13976;DHT22;7062;49.792;9.946;2023-02-28T01:11:58;1.10;99.90
13976;DHT22;7062;49.792;9.946;2023-02-28T01:14:24;1.20;99.90
13976;DHT22;7062;49.792;9.946;2023-02-28T01:16:50;1.10;99.90
13976;DHT22;7062;49.792;9.946;2023-02-28T01:19:16;1.30;99.90
13976;DHT22;7062;49.792;9.946;2023-02-28T01:21:42;1.30;99.90
13976;DHT22;7062;49.792;9.946;2023-02-28T01:24:08;1.30;99.90
13976;DHT22;7062;49.792;9.946;2023-02-28T01:26:33;1.20;99.90
13976;DHT22;7062;49.792;9.946;2023-02-28T01:28:59;1.20;99.90
13976;DHT22;7062;49.792;9.946;2023-02-28T01:31:25;1.10;99.90
13976;DHT22;7062;49.792;9.946;2023-02-28T01:33:51;1.20;99.90
13976;DHT22;7062;49.792;9.946;2023-02-28T01:36:22;1.10;99.90
13976;DHT22;7062;49.792;9.946;2023-02-28T01:38:48;1.20;99.90
13976;DHT22;7062;49.792;9.946;2023-02-28T01:46:08;1.20;99.90
13976;DHT22;7062;49.792;9.946;2023-02-28T01:48:38;1.10;99.90
13976;DHT22;7062;49.792;9.946;2023-02-28T01:51:53;1.10;99.90
13976;DHT22;7062;49.792;9.946;2023-02-28T01:54:03;1.20;99.90
13976;DHT22;7062;49.792;9.946;2023-02-28T01:56:33;1.20;99.90
13976;DHT22;7062;49.792;9.946;2023-02-28T01:59:02;1.20;99.90
13976;DHT22;7062;49.792;9.946;2023-02-28T02:01:28;1.10;99.90
13976;DHT22;7062;49.792;9.946;2023-02-28T02:03:57;1.00;99.90
13976;DHT22;7062;49.792;9.946;2023-02-28T02:06:26;1.00;99.90
13976;DHT22;7062;49.792;9.946;2023-02-28T02:08:53;1.10;99.90
13976;DHT22;7062;49.792;9.946;2023-02-28T02:11:20;1.20;99.90
13976;DHT22;7062;49.792;9.946;2023-02-28T02:18:58;0.80;99.90
13976;DHT22;7062;49.792;9.946;2023-02-28T02:33:02;0.90;99.90
13976;DHT22;7062;49.792;9.946;2023-02-28T02:35:55;0.80;99.90
13976;DHT22;7062;49.792;9.946;2023-02-28T02:38:32;0.80;99.90
13976;DHT22;7062;49.792;9.946;2023-02-28T02:43:44;0.90;99.90
13976;DHT22;7062;49.792;9.946;2023-02-28T02:46:20;0.90;99.90
13976;DHT22;7062;49.792;9.946;2023-02-28T02:48:47;0.90;99.90
13976;DHT22;7062;49.792;9.946;2023-02-28T02:51:16;0.90;99.90
13976;DHT22;7062;49.792;9.946;2023-02-28T02:53:51;1.00;99.90
13976;DHT22;7062;49.792;9.946;2023-02-28T02:56:21;1.00;99.90
13976;DHT22;7062;49.792;9.946;2023-02-28T02:58:50;1.00;99.90
13976;DHT22;7062;49.792;9.946;2023-02-28T03:01:23;0.90;99.90
13976;DHT22;7062;49.792;9.946;2023-02-28T03:04:30;0.90;99.90
13976;DHT22;7062;49.792;9.946;2023-02-28T03:06:48;0.80;99.90
13976;DHT22;7062;49.792;9.946;2023-02-28T03:09:13;0.80;99.90
13976;DHT22;7062;49.792;9.946;2023-02-28T03:11:40;0.70;99.90
13976;DHT22;7062;49.792;9.946;2023-02-28T03:14:25;0.70;99.90
13976;DHT22;7062;49.792;9.946;2023-02-28T03:20:01;0.60;99.90
13976;DHT22;7062;49.792;9.946;2023-02-28T03:22:43;0.70;99.90
13976;DHT22;7062;49.792;9.946;2023-02-28T03:28:04;0.70;99.90
13976;DHT22;7062;49.792;9.946;2023-02-28T03:30:35;0.80;99.90
13976;DHT22;7062;49.792;9.946;2023-02-28T03:35:36;0.70;99.90
13976;DHT22;7062;49.792;9.946;2023-02-28T03:38:22;0.60;99.90
13976;DHT22;7062;49.792;9.946;2023-02-28T03:41:00;0.70;99.90
13976;DHT22;7062;49.792;9.946;2023-02-28T03:43:31;0.70;99.90
13976;DHT22;7062;49.792;9.946;2023-02-28T03:45:59;0.50;99.90
13976;DHT22;7062;49.792;9.946;2023-02-28T03:48:34;0.70;99.90
13976;DHT22;7062;49.792;9.946;2023-02-28T03:51:03;0.60;99.90
13976;DHT22;7062;49.792;9.946;2023-02-28T03:53:37;0.60;99.90
13976;DHT22;7062;49.792;9.946;2023-02-28T04:01:24;0.40;99.90
13976;DHT22;7062;49.792;9.946;2023-02-28T04:03:52;0.30;99.90
13976;DHT22;7062;49.792;9.946;2023-02-28T04:06:20;0.30;99.90
13976;DHT22;7062;49.792;9.946;2023-02-28T04:08:47;0.30;99.90
13976;DHT22;7062;49.792;9.946;2023-02-28T04:13:50;0.30;99.90
13976;DHT22;7062;49.792;9.946;2023-02-28T04:16:16;0.30;99.90
13976;DHT22;7062;49.792;9.946;2023-02-28T04:18:42;0.40;99.90
13976;DHT22;7062;49.792;9.946;2023-02-28T04:21:10;0.30;99.90
13976;DHT22;7062;49.792;9.946;2023-02-28T04:23:36;0.30;99.90
13976;DHT22;7062;49.792;9.946;2023-02-28T04:26:02;0.20;99.90
13976;DHT22;7062;49.792;9.946;2023-02-28T04:28:29;0.30;99.90
13976;DHT22;7062;49.792;9.946;2023-02-28T04:30:58;0.30;99.90
13976;DHT22;7062;49.792;9.946;2023-02-28T04:33:24;0.40;99.90
13976;DHT22;7062;49.792;9.946;2023-02-28T04:36:05;0.40;99.90
13976;DHT22;7062;49.792;9.946;2023-02-28T04:38:38;0.40;99.90
13976;DHT22;7062;49.792;9.946;2023-02-28T04:41:04;0.50;99.90
13976;DHT22;7062;49.792;9.946;2023-02-28T04:43:30;0.50;99.90
13976;DHT22;7062;49.792;9.946;2023-02-28T04:45:57;0.50;99.90
13976;DHT22;7062;49.792;9.946;2023-02-28T04:48:24;0.40;99.90
13976;DHT22;7062;49.792;9.946;2023-02-28T04:50:50;0.50;99.90
13976;DHT22;7062;49.792;9.946;2023-02-28T04:53:16;0.40;99.90
13976;DHT22;7062;49.792;9.946;2023-02-28T04:55:42;0.40;99.90
13976;DHT22;7062;49.792;9.946;2023-02-28T04:58:08;0.60;99.90
13976;DHT22;7062;49.792;9.946;2023-02-28T05:00:33;0.70;99.90
13976;DHT22;7062;49.792;9.946;2023-02-28T05:02:59;0.60;99.90
13976;DHT22;7062;49.792;9.946;2023-02-28T05:05:25;0.50;99.90
13976;DHT22;7062;49.792;9.946;2023-02-28T05:07:50;0.50;99.90
13976;DHT22;7062;49.792;9.946;2023-02-28T05:10:16;0.50;99.90
13976;DHT22;7062;49.792;9.946;2023-02-28T05:12:42;0.50;99.90
13976;DHT22;7062;49.792;9.946;2023-02-28T05:15:12;0.50;99.90
13976;DHT22;7062;49.792;9.946;2023-02-28T05:17:38;0.50;99.90
13976;DHT22;7062;49.792;9.946;2023-02-28T05:20:04;0.40;99.90
13976;DHT22;7062;49.792;9.946;2023-02-28T05:22:30;0.50;99.90
13976;DHT22;7062;49.792;9.946;2023-02-28T05:24:56;0.50;99.90
13976;DHT22;7062;49.792;9.946;2023-02-28T05:27:21;0.60;99.90
13976;DHT22;7062;49.792;9.946;2023-02-28T05:29:47;0.60;99.90
13976;DHT22;7062;49.792;9.946;2023-02-28T05:32:14;0.60;99.90
13976;DHT22;7062;49.792;9.946;2023-02-28T05:34:41;0.50;99.90
13976;DHT22;7062;49.792;9.946;2023-02-28T05:37:12;0.50;99.90
13976;DHT22;7062;49.792;9.946;2023-02-28T05:39:38;0.50;99.90
13976;DHT22;7062;49.792;9.946;2023-02-28T05:42:04;0.40;99.90
13976;DHT22;7062;49.792;9.946;2023-02-28T05:44:30;0.40;99.90
13976;DHT22;7062;49.792;9.946;2023-02-28T05:46:56;0.40;99.90
13976;DHT22;7062;49.792;9.946;2023-02-28T05:49:22;0.40;99.90
13976;DHT22;7062;49.792;9.946;2023-02-28T05:51:47;0.40;99.90
13976;DHT22;7062;49.792;9.946;2023-02-28T05:54:13;0.40;99.90
13976;DHT22;7062;49.792;9.946;2023-02-28T05:56:39;0.50;99.90
13976;DHT22;7062;49.792;9.946;2023-02-28T05:59:06;0.40;99.90
13976;DHT22;7062;49.792;9.946;2023-02-28T06:01:42;0.30;99.90
13976;DHT22;7062;49.792;9.946;2023-02-28T06:04:14;0.30;99.90
13976;DHT22;7062;49.792;9.946;2023-02-28T06:06:44;0.40;99.90
13976;DHT22;7062;49.792;9.946;2023-02-28T06:09:10;0.30;99.90
13976;DHT22;7062;49.792;9.946;2023-02-28T06:11:36;0.20;99.90
13976;DHT22;7062;49.792;9.946;2023-02-28T06:14:03;0.20;99.90
13976;DHT22;7062;49.792;9.946;2023-02-28T06:16:30;0.30;99.90
13976;DHT22;7062;49.792;9.946;2023-02-28T06:19:01;0.40;99.90
13976;DHT22;7062;49.792;9.946;2023-02-28T06:21:27;0.40;99.90
13976;DHT22;7062;49.792;9.946;2023-02-28T06:23:54;0.30;99.90
13976;DHT22;7062;49.792;9.946;2023-02-28T06:26:20;0.40;99.90
13976;DHT22;7062;49.792;9.946;2023-02-28T06:28:46;0.30;99.90
13976;DHT22;7062;49.792;9.946;2023-02-28T06:31:15;0.30;99.90
13976;DHT22;7062;49.792;9.946;2023-02-28T06:33:42;0.30;99.90
13976;DHT22;7062;49.792;9.946;2023-02-28T06:36:09;0.30;99.90
13976;DHT22;7062;49.792;9.946;2023-02-28T06:38:36;0.40;99.90
13976;DHT22;7062;49.792;9.946;2023-02-28T06:41:03;0.40;99.90
13976;DHT22;7062;49.792;9.946;2023-02-28T06:43:31;0.30;99.90
13976;DHT22;7062;49.792;9.946;2023-02-28T06:45:59;0.30;99.90
13976;DHT22;7062;49.792;9.946;2023-02-28T06:48:26;0.30;99.90
13976;DHT22;7062;49.792;9.946;2023-02-28T06:51:02;0.40;99.90
13976;DHT22;7062;49.792;9.946;2023-02-28T06:53:27;0.30;99.90
13976;DHT22;7062;49.792;9.946;2023-02-28T06:55:53;0.40;99.90
13976;DHT22;7062;49.792;9.946;2023-02-28T06:58:19;0.50;99.90
13976;DHT22;7062;49.792;9.946;2023-02-28T07:00:45;0.50;99.90
13976;DHT22;7062;49.792;9.946;2023-02-28T07:03:11;0.60;99.90
13976;DHT22;7062;49.792;9.946;2023-02-28T07:05:38;0.60;99.90
13976;DHT22;7062;49.792;9.946;2023-02-28T07:08:05;0.70;99.90
13976;DHT22;7062;49.792;9.946;2023-02-28T07:10:32;0.70;99.90
13976;DHT22;7062;49.792;9.946;2023-02-28T07:12:58;0.80;99.90
13976;DHT22;7062;49.792;9.946;2023-02-28T07:15:24;0.80;99.90
13976;DHT22;7062;49.792;9.946;2023-02-28T07:17:50;1.00;99.90
13976;DHT22;7062;49.792;9.946;2023-02-28T07:20:16;1.00;99.90
13976;DHT22;7062;49.792;9.946;2023-02-28T07:22:41;1.00;99.90
13976;DHT22;7062;49.792;9.946;2023-02-28T07:25:07;1.00;99.90
13976;DHT22;7062;49.792;9.946;2023-02-28T07:27:33;1.00;99.90
13976;DHT22;7062;49.792;9.946;2023-02-28T07:29:59;1.10;99.90
13976;DHT22;7062;49.792;9.946;2023-02-28T07:32:27;1.00;99.90
13976;DHT22;7062;49.792;9.946;2023-02-28T07:34:53;1.10;99.90
13976;DHT22;7062;49.792;9.946;2023-02-28T07:37:20;1.10;99.90
13976;DHT22;7062;49.792;9.946;2023-02-28T07:39:45;1.00;99.90
13976;DHT22;7062;49.792;9.946;2023-02-28T07:42:11;1.20;99.90
13976;DHT22;7062;49.792;9.946;2023-02-28T07:44:41;1.30;99.90
13976;DHT22;7062;49.792;9.946;2023-02-28T07:47:10;1.50;99.90
13976;DHT22;7062;49.792;9.946;2023-02-28T07:49:36;1.50;99.90
13976;DHT22;7062;49.792;9.946;2023-02-28T07:52:04;1.70;99.90
13976;DHT22;7062;49.792;9.946;2023-02-28T07:54:30;1.80;99.90
13976;DHT22;7062;49.792;9.946;2023-02-28T07:56:56;1.90;99.90
13976;DHT22;7062;49.792;9.946;2023-02-28T07:59:22;1.80;99.90
13976;DHT22;7062;49.792;9.946;2023-02-28T08:01:47;1.90;99.90
13976;DHT22;7062;49.792;9.946;2023-02-28T08:04:16;2.10;99.90
13976;DHT22;7062;49.792;9.946;2023-02-28T08:06:42;2.20;99.90
13976;DHT22;7062;49.792;9.946;2023-02-28T08:09:07;2.20;99.90
13976;DHT22;7062;49.792;9.946;2023-02-28T08:11:33;2.20;99.90
13976;DHT22;7062;49.792;9.946;2023-02-28T08:13:59;2.40;99.90
13976;DHT22;7062;49.792;9.946;2023-02-28T08:16:24;2.40;99.90
13976;DHT22;7062;49.792;9.946;2023-02-28T08:18:51;2.40;99.90
13976;DHT22;7062;49.792;9.946;2023-02-28T08:21:17;2.40;99.90
13976;DHT22;7062;49.792;9.946;2023-02-28T08:23:43;2.50;99.90
13976;DHT22;7062;49.792;9.946;2023-02-28T08:26:09;2.60;99.90
13976;DHT22;7062;49.792;9.946;2023-02-28T08:28:34;2.60;99.90
13976;DHT22;7062;49.792;9.946;2023-02-28T08:31:00;2.60;99.90
13976;DHT22;7062;49.792;9.946;2023-02-28T08:33:27;2.80;99.90
13976;DHT22;7062;49.792;9.946;2023-02-28T08:35:56;2.90;99.90
13976;DHT22;7062;49.792;9.946;2023-02-28T08:38:22;2.80;99.90
13976;DHT22;7062;49.792;9.946;2023-02-28T08:40:48;2.90;99.90
13976;DHT22;7062;49.792;9.946;2023-02-28T08:43:14;3.30;99.90
13976;DHT22;7062;49.792;9.946;2023-02-28T08:45:39;3.60;99.90
13976;DHT22;7062;49.792;9.946;2023-02-28T08:48:05;3.90;99.90
13976;DHT22;7062;49.792;9.946;2023-02-28T08:50:31;3.70;99.90
13976;DHT22;7062;49.792;9.946;2023-02-28T08:52:57;4.00;99.90
13976;DHT22;7062;49.792;9.946;2023-02-28T08:55:23;4.40;99.90
13976;DHT22;7062;49.792;9.946;2023-02-28T08:57:48;4.70;99.90
13976;DHT22;7062;49.792;9.946;2023-02-28T09:00:14;5.10;99.90
13976;DHT22;7062;49.792;9.946;2023-02-28T09:02:40;5.90;99.90
13976;DHT22;7062;49.792;9.946;2023-02-28T09:05:08;6.60;99.90
13976;DHT22;7062;49.792;9.946;2023-02-28T09:07:34;6.70;99.90
13976;DHT22;7062;49.792;9.946;2023-02-28T09:09:59;7.00;99.90
13976;DHT22;7062;49.792;9.946;2023-02-28T09:12:26;7.10;99.90
13976;DHT22;7062;49.792;9.946;2023-02-28T09:14:53;7.90;99.90
13976;DHT22;7062;49.792;9.946;2023-02-28T09:17:19;9.30;99.90
13976;DHT22;7062;49.792;9.946;2023-02-28T09:19:47;9.40;98.20
13976;DHT22;7062;49.792;9.946;2023-02-28T09:22:12;10.20;97.60
13976;DHT22;7062;49.792;9.946;2023-02-28T09:24:38;10.10;96.10
13976;DHT22;7062;49.792;9.946;2023-02-28T09:27:04;10.30;96.10
13976;DHT22;7062;49.792;9.946;2023-02-28T09:29:32;11.60;94.80
13976;DHT22;7062;49.792;9.946;2023-02-28T09:31:58;12.30;93.00
13976;DHT22;7062;49.792;9.946;2023-02-28T09:34:27;11.70;92.70
13976;DHT22;7062;49.792;9.946;2023-02-28T09:36:56;11.40;92.40
13976;DHT22;7062;49.792;9.946;2023-02-28T09:39:22;11.90;92.60
13976;DHT22;7062;49.792;9.946;2023-02-28T09:41:51;11.30;91.40
13976;DHT22;7062;49.792;9.946;2023-02-28T09:44:37;10.70;91.60
13976;DHT22;7062;49.792;9.946;2023-02-28T09:47:17;10.60;92.70
13976;DHT22;7062;49.792;9.946;2023-02-28T09:49:47;11.20;91.80
13976;DHT22;7062;49.792;9.946;2023-02-28T09:52:23;11.80;91.10
13976;DHT22;7062;49.792;9.946;2023-02-28T09:54:52;12.90;90.20
13976;DHT22;7062;49.792;9.946;2023-02-28T09:57:39;12.90;86.80
13976;DHT22;7062;49.792;9.946;2023-02-28T10:00:22;13.10;88.10
13976;DHT22;7062;49.792;9.946;2023-02-28T10:05:24;15.30;82.10
13976;DHT22;7062;49.792;9.946;2023-02-28T10:08:11;15.80;79.50
13976;DHT22;7062;49.792;9.946;2023-02-28T10:10:44;15.90;78.50
13976;DHT22;7062;49.792;9.946;2023-02-28T10:15:40;17.10;73.90
13976;DHT22;7062;49.792;9.946;2023-02-28T10:18:11;18.00;73.10
13976;DHT22;7062;49.792;9.946;2023-02-28T10:20:40;17.80;71.40
13976;DHT22;7062;49.792;9.946;2023-02-28T10:25:45;16.40;71.40
13976;DHT22;7062;49.792;9.946;2023-02-28T10:28:17;16.60;71.60
13976;DHT22;7062;49.792;9.946;2023-02-28T10:30:49;16.40;71.10
13976;DHT22;7062;49.792;9.946;2023-02-28T10:33:24;16.40;70.30
13976;DHT22;7062;49.792;9.946;2023-02-28T10:35:51;16.70;69.70
13976;DHT22;7062;49.792;9.946;2023-02-28T10:38:34;16.80;70.00
13976;DHT22;7062;49.792;9.946;2023-02-28T10:41:48;16.80;69.70
13976;DHT22;7062;49.792;9.946;2023-02-28T10:44:15;17.20;69.10
13976;DHT22;7062;49.792;9.946;2023-02-28T10:46:43;17.30;67.80
13976;DHT22;7062;49.792;9.946;2023-02-28T10:49:35;18.40;67.00
13976;DHT22;7062;49.792;9.946;2023-02-28T10:52:03;18.80;64.60
13976;DHT22;7062;49.792;9.946;2023-02-28T10:54:36;18.40;63.70
13976;DHT22;7062;49.792;9.946;2023-02-28T10:59:43;15.30;67.90
13976;DHT22;7062;49.792;9.946;2023-02-28T11:02:36;13.50;70.40
13976;DHT22;7062;49.792;9.946;2023-02-28T11:05:30;12.20;73.30
13976;DHT22;7062;49.792;9.946;2023-02-28T11:08:14;10.70;76.50
13976;DHT22;7062;49.792;9.946;2023-02-28T11:10:48;9.50;78.60
13976;DHT22;7062;49.792;9.946;2023-02-28T11:13:32;9.20;81.20
13976;DHT22;7062;49.792;9.946;2023-02-28T11:16:02;8.90;81.80
13976;DHT22;7062;49.792;9.946;2023-02-28T11:18:32;8.50;82.60
13976;DHT22;7062;49.792;9.946;2023-02-28T11:21:01;8.20;83.30
13976;DHT22;7062;49.792;9.946;2023-02-28T11:23:29;8.20;84.40
13976;DHT22;7062;49.792;9.946;2023-02-28T11:25:59;8.20;83.90
13976;DHT22;7062;49.792;9.946;2023-02-28T11:28:32;7.60;85.70
13976;DHT22;7062;49.792;9.946;2023-02-28T11:33:52;7.50;86.70
13976;DHT22;7062;49.792;9.946;2023-02-28T11:36:20;7.40;87.30
13976;DHT22;7062;49.792;9.946;2023-02-28T11:38:47;7.70;86.60
13976;DHT22;7062;49.792;9.946;2023-02-28T11:50:38;8.30;85.10
13976;DHT22;7062;49.792;9.946;2023-02-28T11:53:10;8.60;85.20
13976;DHT22;7062;49.792;9.946;2023-02-28T11:55:45;9.10;83.50
13976;DHT22;7062;49.792;9.946;2023-02-28T12:01:31;11.30;78.70
13976;DHT22;7062;49.792;9.946;2023-02-28T12:21:11;16.20;69.10
13976;DHT22;7062;49.792;9.946;2023-02-28T12:26:46;16.80;67.30
13976;DHT22;7062;49.792;9.946;2023-02-28T12:29:23;15.20;68.10
13976;DHT22;7062;49.792;9.946;2023-02-28T12:31:58;14.20;70.00
13976;DHT22;7062;49.792;9.946;2023-02-28T12:34:30;12.60;72.20
13976;DHT22;7062;49.792;9.946;2023-02-28T12:36:59;10.80;76.30
13976;DHT22;7062;49.792;9.946;2023-02-28T12:39:30;11.00;76.90
13976;DHT22;7062;49.792;9.946;2023-02-28T12:42:13;11.20;77.00
13976;DHT22;7062;49.792;9.946;2023-02-28T12:44:49;12.60;76.20
13976;DHT22;7062;49.792;9.946;2023-02-28T12:47:18;15.00;71.50
13976;DHT22;7062;49.792;9.946;2023-02-28T12:49:49;16.20;69.20
13976;DHT22;7062;49.792;9.946;2023-02-28T12:52:19;16.30;67.40
13976;DHT22;7062;49.792;9.946;2023-02-28T12:54:52;15.70;68.00
13976;DHT22;7062;49.792;9.946;2023-02-28T12:57:33;15.60;69.10
13976;DHT22;7062;49.792;9.946;2023-02-28T13:00:04;15.90;67.90
13976;DHT22;7062;49.792;9.946;2023-02-28T13:05:29;15.20;68.50
13976;DHT22;7062;49.792;9.946;2023-02-28T13:10:57;15.30;68.90
13976;DHT22;7062;49.792;9.946;2023-02-28T13:13:25;16.30;66.80
13976;DHT22;7062;49.792;9.946;2023-02-28T13:21:04;17.20;66.30
13976;DHT22;7062;49.792;9.946;2023-02-28T13:26:17;16.30;66.80
13976;DHT22;7062;49.792;9.946;2023-02-28T13:31:19;17.40;65.70
13976;DHT22;7062;49.792;9.946;2023-02-28T13:38:53;17.20;64.40
13976;DHT22;7062;49.792;9.946;2023-02-28T13:46:27;17.50;63.90
13976;DHT22;7062;49.792;9.946;2023-02-28T13:48:53;17.20;64.10
13976;DHT22;7062;49.792;9.946;2023-02-28T13:51:47;18.10;64.10
13976;DHT22;7062;49.792;9.946;2023-02-28T13:57:08;18.20;62.70
13976;DHT22;7062;49.792;9.946;2023-02-28T13:59:51;18.80;62.50
13976;DHT22;7062;49.792;9.946;2023-02-28T14:03:00;19.00;61.70
13976;DHT22;7062;49.792;9.946;2023-02-28T14:05:32;18.60;61.20
13976;DHT22;7062;49.792;9.946;2023-02-28T14:08:04;19.00;61.20
13976;DHT22;7062;49.792;9.946;2023-02-28T14:11:04;18.40;61.80
13976;DHT22;7062;49.792;9.946;2023-02-28T14:16:13;17.90;62.70
13976;DHT22;7062;49.792;9.946;2023-02-28T14:21:32;19.10;61.40
13976;DHT22;7062;49.792;9.946;2023-02-28T14:34:55;18.30;60.90
13976;DHT22;7062;49.792;9.946;2023-02-28T14:37:32;19.00;60.40
13976;DHT22;7062;49.792;9.946;2023-02-28T14:40:03;20.10;58.80
13976;DHT22;7062;49.792;9.946;2023-02-28T14:42:34;19.00;58.80
13976;DHT22;7062;49.792;9.946;2023-02-28T14:45:00;19.20;59.30
13976;DHT22;7062;49.792;9.946;2023-02-28T14:47:36;19.30;59.30
13976;DHT22;7062;49.792;9.946;2023-02-28T14:50:03;18.50;59.10
13976;DHT22;7062;49.792;9.946;2023-02-28T14:52:31;18.30;60.10
13976;DHT22;7062;49.792;9.946;2023-02-28T14:55:01;18.20;60.20
13976;DHT22;7062;49.792;9.946;2023-02-28T14:57:33;18.30;60.80
13976;DHT22;7062;49.792;9.946;2023-02-28T15:00:22;17.60;61.20
13976;DHT22;7062;49.792;9.946;2023-02-28T15:02:48;16.80;62.40
13976;DHT22;7062;49.792;9.946;2023-02-28T15:05:19;17.30;62.00
13976;DHT22;7062;49.792;9.946;2023-02-28T15:07:48;17.40;62.10
13976;DHT22;7062;49.792;9.946;2023-02-28T15:10:23;16.30;62.80
13976;DHT22;7062;49.792;9.946;2023-02-28T15:15:56;16.50;62.60
13976;DHT22;7062;49.792;9.946;2023-02-28T15:20:49;16.30;63.20
13976;DHT22;7062;49.792;9.946;2023-02-28T15:23:17;16.30;63.50
13976;DHT22;7062;49.792;9.946;2023-02-28T15:25:44;15.70;63.70
13976;DHT22;7062;49.792;9.946;2023-02-28T15:28:16;16.00;63.80
13976;DHT22;7062;49.792;9.946;2023-02-28T15:30:52;15.60;63.70
13976;DHT22;7062;49.792;9.946;2023-02-28T15:33:25;14.80;65.00
13976;DHT22;7062;49.792;9.946;2023-02-28T15:36:03;14.30;65.90
13976;DHT22;7062;49.792;9.946;2023-02-28T15:38:35;13.30;67.30
13976;DHT22;7062;49.792;9.946;2023-02-28T15:41:01;12.70;68.90
13976;DHT22;7062;49.792;9.946;2023-02-28T15:43:38;12.10;69.90
13976;DHT22;7062;49.792;9.946;2023-02-28T15:46:10;11.20;71.50
13976;DHT22;7062;49.792;9.946;2023-02-28T15:48:51;10.70;73.20
13976;DHT22;7062;49.792;9.946;2023-02-28T15:54:05;9.60;75.40
13976;DHT22;7062;49.792;9.946;2023-02-28T15:56:38;9.20;76.90
13976;DHT22;7062;49.792;9.946;2023-02-28T15:59:07;9.30;77.10
13976;DHT22;7062;49.792;9.946;2023-02-28T16:01:37;9.40;77.10
13976;DHT22;7062;49.792;9.946;2023-02-28T16:04:23;9.30;77.30
13976;DHT22;7062;49.792;9.946;2023-02-28T16:09:23;8.90;78.60
13976;DHT22;7062;49.792;9.946;2023-02-28T16:11:51;9.10;78.80
13976;DHT22;7062;49.792;9.946;2023-02-28T16:14:23;9.00;78.90
13976;DHT22;7062;49.792;9.946;2023-02-28T16:16:52;9.00;78.90
13976;DHT22;7062;49.792;9.946;2023-02-28T16:19:18;8.80;79.60
13976;DHT22;7062;49.792;9.946;2023-02-28T16:21:45;8.60;79.90
13976;DHT22;7062;49.792;9.946;2023-02-28T16:24:11;8.50;80.40
13976;DHT22;7062;49.792;9.946;2023-02-28T16:26:39;8.70;80.40
13976;DHT22;7062;49.792;9.946;2023-02-28T16:29:06;8.60;80.70
13976;DHT22;7062;49.792;9.946;2023-02-28T16:31:37;8.70;80.60
13976;DHT22;7062;49.792;9.946;2023-02-28T16:34:04;8.50;81.00
13976;DHT22;7062;49.792;9.946;2023-02-28T16:36:30;8.40;81.60
13976;DHT22;7062;49.792;9.946;2023-02-28T16:38:56;8.20;82.10
13976;DHT22;7062;49.792;9.946;2023-02-28T16:41:25;8.10;82.50
13976;DHT22;7062;49.792;9.946;2023-02-28T16:43:54;8.10;82.80
13976;DHT22;7062;49.792;9.946;2023-02-28T16:46:25;7.90;83.40
13976;DHT22;7062;49.792;9.946;2023-02-28T16:48:52;7.90;83.50
13976;DHT22;7062;49.792;9.946;2023-02-28T16:51:18;7.90;83.70
13976;DHT22;7062;49.792;9.946;2023-02-28T16:53:44;7.90;83.90
13976;DHT22;7062;49.792;9.946;2023-02-28T16:56:19;7.60;84.40
13976;DHT22;7062;49.792;9.946;2023-02-28T16:58:46;7.70;84.60
13976;DHT22;7062;49.792;9.946;2023-02-28T17:01:12;7.60;84.90
13976;DHT22;7062;49.792;9.946;2023-02-28T17:03:38;7.30;85.50
13976;DHT22;7062;49.792;9.946;2023-02-28T17:06:09;7.10;86.50
13976;DHT22;7062;49.792;9.946;2023-02-28T17:08:38;7.00;86.70
13976;DHT22;7062;49.792;9.946;2023-02-28T17:11:04;7.00;87.20
13976;DHT22;7062;49.792;9.946;2023-02-28T17:13:30;7.00;87.10
13976;DHT22;7062;49.792;9.946;2023-02-28T17:15:55;7.00;87.20
13976;DHT22;7062;49.792;9.946;2023-02-28T17:18:21;7.00;87.70
13976;DHT22;7062;49.792;9.946;2023-02-28T17:20:48;6.80;88.00
13976;DHT22;7062;49.792;9.946;2023-02-28T17:23:14;6.90;88.10
13976;DHT22;7062;49.792;9.946;2023-02-28T17:25:39;7.10;88.10
13976;DHT22;7062;49.792;9.946;2023-02-28T17:28:05;7.10;87.90
13976;DHT22;7062;49.792;9.946;2023-02-28T17:30:33;6.90;88.30
13976;DHT22;7062;49.792;9.946;2023-02-28T17:32:59;6.90;88.50
13976;DHT22;7062;49.792;9.946;2023-02-28T17:35:24;6.80;89.00
13976;DHT22;7062;49.792;9.946;2023-02-28T17:37:51;6.70;89.40
13976;DHT22;7062;49.792;9.946;2023-02-28T17:40:20;6.70;89.50
13976;DHT22;7062;49.792;9.946;2023-02-28T17:42:46;6.80;89.60
13976;DHT22;7062;49.792;9.946;2023-02-28T17:45:12;6.80;89.70
13976;DHT22;7062;49.792;9.946;2023-02-28T17:47:39;6.70;89.90
13976;DHT22;7062;49.792;9.946;2023-02-28T17:50:05;6.70;90.00
13976;DHT22;7062;49.792;9.946;2023-02-28T17:52:31;6.60;90.10
13976;DHT22;7062;49.792;9.946;2023-02-28T17:55:02;6.50;90.20
13976;DHT22;7062;49.792;9.946;2023-02-28T17:57:28;6.30;90.50
13976;DHT22;7062;49.792;9.946;2023-02-28T17:59:54;6.30;90.60
13976;DHT22;7062;49.792;9.946;2023-02-28T18:02:19;6.40;90.60
13976;DHT22;7062;49.792;9.946;2023-02-28T18:04:45;6.30;90.70
13976;DHT22;7062;49.792;9.946;2023-02-28T18:07:11;6.50;90.70
13976;DHT22;7062;49.792;9.946;2023-02-28T18:09:37;6.50;90.70
13976;DHT22;7062;49.792;9.946;2023-02-28T18:12:03;6.40;90.80
13976;DHT22;7062;49.792;9.946;2023-02-28T18:14:29;6.20;91.10
13976;DHT22;7062;49.792;9.946;2023-02-28T18:16:55;6.00;91.40
13976;DHT22;7062;49.792;9.946;2023-02-28T18:19:22;6.00;91.60
13976;DHT22;7062;49.792;9.946;2023-02-28T18:21:50;6.00;91.60
13976;DHT22;7062;49.792;9.946;2023-02-28T18:24:18;6.00;91.70
13976;DHT22;7062;49.792;9.946;2023-02-28T18:26:44;6.00;91.70
13976;DHT22;7062;49.792;9.946;2023-02-28T18:29:28;5.90;91.90
13976;DHT22;7062;49.792;9.946;2023-02-28T18:31:55;5.80;92.30
13976;DHT22;7062;49.792;9.946;2023-02-28T18:34:22;5.80;92.10